Time;durP1;ratioP1;P1;durP2;ratioP2;P2;SDS_P1;SDS_P2;PMS_P1;PMS_P2;Temp;Humidity;BMP_temperature;BMP_pressure;BME280_temperature;BME280_humidity;BME280_pressure;Samples;Min_cycle;Max_cycle;Signal;HPM_P1;HPM_P2
2021/11/18 00:00:41;;;;;;;;;;;6.80;52.20;;;;;;4374546;32;19978;-49
2021/11/18 00:03:08;;;;;;;;;;;6.80;52.10;;;;;;4374398;32;20003;-44
2021/11/18 00:05:34;;;;;;;;;;;6.80;51.90;;;;;;4374261;32;19993;-48
2021/11/18 00:08:00;;;;;;;;;;;6.80;51.90;;;;;;4374246;32;19961;-45
2021/11/18 00:10:48;;;;;;;;;;;6.80;51.90;;;;;;4374134;32;20390;-48
2021/11/18 00:13:15;;;;;;;;;;;6.80;51.80;;;;;;4373538;32;19970;-49
2021/11/18 00:15:42;;;;;;;;;;;6.80;51.80;;;;;;4373496;32;19974;-48
2021/11/18 00:18:11;;;;;;;;;;;6.80;51.90;;;;;;4374448;32;20062;-47
2021/11/18 00:20:40;;;;;;;;;;;6.80;51.90;;;;;;4381468;32;20377;-48
2021/11/18 00:23:06;;;;;;;;;;;6.80;51.80;;;;;;4389295;32;20362;-49
2021/11/18 00:25:33;;;;;;;;;;;6.80;51.70;;;;;;4389141;32;19962;-49
2021/11/18 00:27:59;;;;;;;;;;;6.80;51.70;;;;;;4388779;32;20074;-48
2021/11/18 00:30:25;;;;;;;;;;;6.80;51.80;;;;;;4389139;32;19974;-50
2021/11/18 00:32:52;;;;;;;;;;;6.80;51.70;;;;;;4375113;32;20057;-50
2021/11/18 00:35:20;;;;;;;;;;;6.80;51.80;;;;;;4389227;32;19957;-48
2021/11/18 00:41:09;;;;;;;;;;;6.90;51.80;;;;;;4389309;32;20464;-48
2021/11/18 00:43:35;;;;;;;;;;;6.90;51.60;;;;;;4389047;32;20116;-48
2021/11/18 00:46:02;;;;;;;;;;;6.90;51.60;;;;;;4388556;32;19966;-49
2021/11/18 00:48:28;;;;;;;;;;;6.80;51.60;;;;;;4388695;32;19962;-47
2021/11/18 00:50:57;;;;;;;;;;;6.80;51.60;;;;;;4388912;32;20009;-49
2021/11/18 00:53:24;;;;;;;;;;;6.80;51.60;;;;;;4389043;32;19968;-52
2021/11/18 00:55:50;;;;;;;;;;;6.80;51.60;;;;;;4388888;32;20050;-51
2021/11/18 00:58:16;;;;;;;;;;;6.80;51.60;;;;;;4374520;32;20027;-49
2021/11/18 01:00:44;;;;;;;;;;;6.70;51.60;;;;;;4374673;32;20060;-49
2021/11/18 01:03:12;;;;;;;;;;;6.80;51.70;;;;;;4388884;32;20417;-50
2021/11/18 01:05:40;;;;;;;;;;;6.70;51.60;;;;;;4388609;32;20097;-49
2021/11/18 01:08:07;;;;;;;;;;;6.70;51.60;;;;;;4388296;32;20406;-50
2021/11/18 01:10:37;;;;;;;;;;;6.70;51.60;;;;;;4388314;32;20493;-51
2021/11/18 01:13:04;;;;;;;;;;;6.70;51.60;;;;;;4388304;32;19977;-51
2021/11/18 01:15:31;;;;;;;;;;;6.60;51.60;;;;;;4388314;32;20054;-49
2021/11/18 01:17:57;;;;;;;;;;;6.60;51.70;;;;;;4388175;32;20058;-48
2021/11/18 01:20:24;;;;;;;;;;;6.60;51.60;;;;;;4383087;32;20089;-51
2021/11/18 01:22:54;;;;;;;;;;;6.60;51.70;;;;;;4373418;32;19981;-49
2021/11/18 01:25:20;;;;;;;;;;;6.60;51.60;;;;;;4373113;32;19974;-50
2021/11/18 01:27:46;;;;;;;;;;;6.60;51.60;;;;;;4373039;32;20418;-50
2021/11/18 01:30:16;;;;;;;;;;;6.60;51.60;;;;;;4373499;32;19978;-45
2021/11/18 01:32:42;;;;;;;;;;;6.60;51.60;;;;;;4373270;32;19974;-41
2021/11/18 01:35:09;;;;;;;;;;;6.60;51.60;;;;;;4373862;32;20004;-50
2021/11/18 01:37:35;;;;;;;;;;;6.60;51.40;;;;;;4372916;32;19969;-50
2021/11/18 01:40:02;;;;;;;;;;;6.60;51.50;;;;;;4373281;32;19970;-50
2021/11/18 01:42:28;;;;;;;;;;;6.60;51.40;;;;;;4373282;32;20062;-49
2021/11/18 01:44:54;;;;;;;;;;;6.60;51.30;;;;;;4373190;32;19974;-50
2021/11/18 01:47:21;;;;;;;;;;;6.60;51.40;;;;;;4372786;32;20382;-50
2021/11/18 01:49:47;;;;;;;;;;;6.60;51.30;;;;;;4372776;32;19966;-50
2021/11/18 01:52:16;;;;;;;;;;;6.60;51.40;;;;;;4372887;32;19986;-43
2021/11/18 01:54:42;;;;;;;;;;;6.70;51.40;;;;;;4373413;32;19976;-50
2021/11/18 01:57:11;;;;;;;;;;;6.70;51.20;;;;;;4359313;32;19970;-51
2021/11/18 01:59:39;;;;;;;;;;;6.70;51.10;;;;;;4372882;32;19954;-50
2021/11/18 02:02:07;;;;;;;;;;;6.80;51.20;;;;;;4359076;32;19981;-54
2021/11/18 02:04:33;;;;;;;;;;;6.80;51.10;;;;;;4373285;32;20051;-49
2021/11/18 02:07:03;;;;;;;;;;;6.90;51.10;;;;;;4373034;32;19962;-49
2021/11/18 02:09:29;;;;;;;;;;;6.90;50.80;;;;;;4373141;32;19982;-51
2021/11/18 02:12:01;;;;;;;;;;;6.90;50.60;;;;;;4359086;32;19993;-49
2021/11/18 02:14:28;;;;;;;;;;;6.90;50.60;;;;;;4372997;32;20393;-48
2021/11/18 02:16:55;;;;;;;;;;;6.90;50.60;;;;;;4372337;32;20432;-49
2021/11/18 02:19:21;;;;;;;;;;;6.90;50.70;;;;;;4373107;32;19970;-50
2021/11/18 02:21:49;;;;;;;;;;;6.90;50.70;;;;;;4372417;32;20529;-47
2021/11/18 02:24:30;;;;;;;;;;;6.90;50.50;;;;;;4372949;32;20029;-39
2021/11/18 02:26:56;;;;;;;;;;;6.90;50.50;;;;;;4371174;32;19974;-50
2021/11/18 02:29:23;;;;;;;;;;;6.90;50.60;;;;;;4372931;32;19981;-51
2021/11/18 02:31:58;;;;;;;;;;;7.00;50.60;;;;;;4372686;32;20078;-50
2021/11/18 02:34:34;;;;;;;;;;;7.00;50.50;;;;;;4354883;32;20108;-49
2021/11/18 02:37:00;;;;;;;;;;;7.00;50.40;;;;;;4354883;32;19990;-49
2021/11/18 02:39:27;;;;;;;;;;;7.10;50.30;;;;;;4358046;32;19971;-50
2021/11/18 02:41:53;;;;;;;;;;;7.10;50.30;;;;;;4357924;32;19977;-51
2021/11/18 02:44:19;;;;;;;;;;;7.10;50.20;;;;;;4358133;32;19966;-47
2021/11/18 02:46:46;;;;;;;;;;;7.10;50.00;;;;;;4358137;32;19974;-49
2021/11/18 02:49:12;;;;;;;;;;;7.10;49.90;;;;;;4357960;32;20000;-49
2021/11/18 02:51:38;;;;;;;;;;;7.10;50.00;;;;;;4358185;32;19973;-50
2021/11/18 02:54:04;;;;;;;;;;;7.10;50.00;;;;;;4357580;32;20421;-49
2021/11/18 02:56:32;;;;;;;;;;;7.10;49.80;;;;;;4357689;32;20539;-50
2021/11/18 02:58:59;;;;;;;;;;;7.00;49.70;;;;;;4357515;32;20056;-49
2021/11/18 03:01:31;;;;;;;;;;;7.10;49.80;;;;;;4358008;32;20085;-48
2021/11/18 03:03:58;;;;;;;;;;;7.10;49.90;;;;;;4357632;32;20065;-51
2021/11/18 03:06:24;;;;;;;;;;;7.10;49.80;;;;;;4373894;32;20005;-51
2021/11/18 03:08:50;;;;;;;;;;;7.10;49.80;;;;;;4375337;32;20402;-46
2021/11/18 03:11:18;;;;;;;;;;;7.10;49.60;;;;;;4375278;32;20046;-50
2021/11/18 03:13:44;;;;;;;;;;;7.10;49.40;;;;;;4374915;32;20038;-50
2021/11/18 03:16:10;;;;;;;;;;;7.00;49.40;;;;;;4375003;32;20061;-50
2021/11/18 03:18:37;;;;;;;;;;;7.00;49.40;;;;;;4374973;32;20394;-51
2021/11/18 03:21:04;;;;;;;;;;;7.00;49.50;;;;;;4366464;32;20025;-48
2021/11/18 03:23:31;;;;;;;;;;;7.00;49.30;;;;;;4374760;32;19994;-48
2021/11/18 03:25:58;;;;;;;;;;;7.00;49.30;;;;;;4375216;32;19969;-50
2021/11/18 03:28:25;;;;;;;;;;;7.00;49.40;;;;;;4374974;32;20057;-49
2021/11/18 03:30:51;;;;;;;;;;;7.00;49.50;;;;;;4360693;32;20025;-50
2021/11/18 03:33:29;;;;;;;;;;;7.10;49.50;;;;;;4361290;32;19982;-49
2021/11/18 03:35:56;;;;;;;;;;;7.10;49.40;;;;;;4374709;32;20351;-51
2021/11/18 03:38:23;;;;;;;;;;;7.20;49.30;;;;;;4374660;32;20370;-50
2021/11/18 03:40:50;;;;;;;;;;;7.30;49.20;;;;;;4360656;32;20068;-49
2021/11/18 03:43:18;;;;;;;;;;;7.30;49.00;;;;;;4374928;32;19969;-51
2021/11/18 03:45:44;;;;;;;;;;;7.30;48.80;;;;;;4374606;32;20498;-50
2021/11/18 03:48:15;;;;;;;;;;;7.30;48.80;;;;;;4374374;32;19990;-49
2021/11/18 03:50:42;;;;;;;;;;;7.20;48.70;;;;;;4329353;33;20466;-51
2021/11/18 03:53:08;;;;;;;;;;;7.30;48.80;;;;;;4342232;33;20069;-51
2021/11/18 03:55:34;;;;;;;;;;;7.30;48.80;;;;;;4342325;33;19982;-50
2021/11/18 03:58:01;;;;;;;;;;;7.30;48.80;;;;;;4329783;33;20002;-50
2021/11/18 04:00:28;;;;;;;;;;;7.30;48.30;;;;;;4341825;33;19962;-51
2021/11/18 04:02:56;;;;;;;;;;;7.30;47.80;;;;;;4341949;33;19973;-54
2021/11/18 04:05:22;;;;;;;;;;;7.20;47.70;;;;;;4342133;33;19977;-54
2021/11/18 04:07:48;;;;;;;;;;;7.30;47.80;;;;;;4341914;33;19993;-50
2021/11/18 04:10:17;;;;;;;;;;;7.30;47.60;;;;;;4341591;33;20025;-50
2021/11/18 04:12:44;;;;;;;;;;;7.30;47.70;;;;;;4329824;33;20065;-50
2021/11/18 04:15:10;;;;;;;;;;;7.30;47.60;;;;;;4329574;33;19994;-52
2021/11/18 04:17:36;;;;;;;;;;;7.30;47.30;;;;;;4353840;32;20058;-45
2021/11/18 04:20:04;;;;;;;;;;;7.30;47.20;;;;;;4341427;33;19966;-51
2021/11/18 04:22:30;;;;;;;;;;;7.30;47.30;;;;;;4368669;32;19974;-53
2021/11/18 04:24:56;;;;;;;;;;;7.30;47.30;;;;;;4373835;32;19967;-52
2021/11/18 04:27:22;;;;;;;;;;;7.30;47.40;;;;;;4374042;32;19982;-46
2021/11/18 04:29:49;;;;;;;;;;;7.30;47.40;;;;;;4373952;32;20495;-50
2021/11/18 04:32:18;;;;;;;;;;;7.30;47.50;;;;;;4374224;32;19966;-51
2021/11/18 04:34:44;;;;;;;;;;;7.30;47.50;;;;;;4373927;32;20374;-53
2021/11/18 04:37:11;;;;;;;;;;;7.30;47.40;;;;;;4373538;32;19978;-50
2021/11/18 04:39:37;;;;;;;;;;;7.30;47.40;;;;;;4373968;32;20048;-53
2021/11/18 04:42:04;;;;;;;;;;;7.20;47.10;;;;;;4373792;32;19974;-51
2021/11/18 04:44:31;;;;;;;;;;;7.20;47.10;;;;;;4373134;32;20010;-52
2021/11/18 04:46:59;;;;;;;;;;;7.20;47.20;;;;;;4373581;32;19980;-51
2021/11/18 04:49:25;;;;;;;;;;;7.20;47.20;;;;;;4373465;32;19973;-51
2021/11/18 04:51:51;;;;;;;;;;;7.20;47.20;;;;;;4373326;32;20391;-53
2021/11/18 04:54:17;;;;;;;;;;;7.20;47.20;;;;;;4373658;32;20453;-54
2021/11/18 04:56:44;;;;;;;;;;;7.20;47.20;;;;;;4373780;32;20005;-49
2021/11/18 04:59:11;;;;;;;;;;;7.10;47.30;;;;;;4373433;32;19990;-50
2021/11/18 05:01:37;;;;;;;;;;;7.10;47.50;;;;;;4373332;32;20437;-49
2021/11/18 05:04:04;;;;;;;;;;;7.00;47.50;;;;;;4373282;32;19984;-50
2021/11/18 05:06:31;;;;;;;;;;;7.00;47.80;;;;;;4373428;32;19970;-52
2021/11/18 05:08:57;;;;;;;;;;;6.90;47.70;;;;;;4372981;32;20374;-51
2021/11/18 05:11:23;;;;;;;;;;;6.90;47.90;;;;;;4373595;32;19962;-49
2021/11/18 05:13:50;;;;;;;;;;;6.90;47.90;;;;;;4372989;32;20467;-49
2021/11/18 05:16:17;;;;;;;;;;;6.80;48.00;;;;;;4373151;32;19970;-50
2021/11/18 05:18:44;;;;;;;;;;;6.80;48.20;;;;;;4373689;32;19961;-52
2021/11/18 05:21:12;;;;;;;;;;;6.70;48.50;;;;;;4383422;32;19965;-51
2021/11/18 05:23:38;;;;;;;;;;;6.70;48.60;;;;;;4387691;32;20069;-51
2021/11/18 05:26:05;;;;;;;;;;;6.70;48.80;;;;;;4374013;32;20506;-50
2021/11/18 05:28:31;;;;;;;;;;;6.70;48.90;;;;;;4388282;32;19980;-51
2021/11/18 05:30:57;;;;;;;;;;;6.70;48.90;;;;;;4388220;32;19980;-51
2021/11/18 05:33:26;;;;;;;;;;;6.70;48.90;;;;;;4388225;32;20062;-50
2021/11/18 05:35:53;;;;;;;;;;;6.80;49.70;;;;;;4374740;32;20406;-49
2021/11/18 05:38:20;;;;;;;;;;;6.80;49.10;;;;;;4388014;32;19965;-53
2021/11/18 05:40:47;;;;;;;;;;;6.70;49.00;;;;;;4387674;32;20528;-52
2021/11/18 05:43:13;;;;;;;;;;;6.70;49.10;;;;;;4388125;32;19992;-53
2021/11/18 05:45:39;;;;;;;;;;;6.80;49.30;;;;;;4373666;32;19978;-53
2021/11/18 05:48:06;;;;;;;;;;;6.80;49.20;;;;;;4387752;32;20008;-51
2021/11/18 05:50:32;;;;;;;;;;;6.90;49.30;;;;;;4387955;32;19977;-51
2021/11/18 05:52:58;;;;;;;;;;;6.90;49.40;;;;;;4387992;32;20463;-51
2021/11/18 05:55:27;;;;;;;;;;;7.00;49.20;;;;;;4387772;32;19988;-51
2021/11/18 05:57:53;;;;;;;;;;;6.90;49.10;;;;;;4387859;32;20017;-54
2021/11/18 06:00:22;;;;;;;;;;;7.00;49.30;;;;;;4387799;32;20001;-51
2021/11/18 06:02:49;;;;;;;;;;;6.90;49.30;;;;;;4388071;32;19958;-51
2021/11/18 06:05:15;;;;;;;;;;;7.00;49.40;;;;;;4387612;32;20041;-51
2021/11/18 06:07:42;;;;;;;;;;;7.00;49.40;;;;;;4387221;32;20373;-52
2021/11/18 06:10:08;;;;;;;;;;;7.00;49.40;;;;;;4387815;32;20074;-53
2021/11/18 06:12:34;;;;;;;;;;;7.00;49.20;;;;;;4373591;32;20050;-51
2021/11/18 06:15:01;;;;;;;;;;;7.10;49.30;;;;;;4390783;32;19993;-48
2021/11/18 06:17:27;;;;;;;;;;;7.00;49.30;;;;;;4390669;32;20064;-44
2021/11/18 06:19:53;;;;;;;;;;;7.00;49.20;;;;;;4374108;32;19985;-50
2021/11/18 06:22:24;;;;;;;;;;;7.10;49.20;;;;;;4376026;32;19962;-50
2021/11/18 06:24:52;;;;;;;;;;;7.10;49.10;;;;;;4376049;32;20085;-51
2021/11/18 06:27:18;;;;;;;;;;;7.00;49.00;;;;;;4375259;32;19958;-52
2021/11/18 06:29:44;;;;;;;;;;;7.00;49.00;;;;;;4361214;32;19992;-51
2021/11/18 06:32:10;;;;;;;;;;;6.90;48.90;;;;;;4375418;32;20152;-50
2021/11/18 06:34:38;;;;;;;;;;;6.90;49.20;;;;;;4375492;32;19972;-53
2021/11/18 06:37:04;;;;;;;;;;;6.90;49.30;;;;;;4375135;32;20032;-50
2021/11/18 06:39:32;;;;;;;;;;;6.90;49.20;;;;;;4357073;32;20087;-47
2021/11/18 06:41:58;;;;;;;;;;;6.90;49.20;;;;;;4346169;32;19998;-50
2021/11/18 06:44:24;;;;;;;;;;;7.00;49.30;;;;;;4358396;32;20042;-51
2021/11/18 06:46:50;;;;;;;;;;;7.00;49.30;;;;;;4357899;32;19991;-52
2021/11/18 06:49:17;;;;;;;;;;;7.00;49.00;;;;;;4357928;32;19977;-51
2021/11/18 06:51:43;;;;;;;;;;;7.00;48.80;;;;;;4357760;32;19962;-49
2021/11/18 06:54:11;;;;;;;;;;;6.90;48.90;;;;;;4345551;32;19978;-52
2021/11/18 06:56:37;;;;;;;;;;;6.90;48.90;;;;;;4357958;32;20064;-50
2021/11/18 06:59:04;;;;;;;;;;;6.90;49.00;;;;;;4357625;32;19975;-50
2021/11/18 07:01:30;;;;;;;;;;;6.80;48.70;;;;;;4357830;32;20051;-47
2021/11/18 07:03:56;;;;;;;;;;;6.70;49.20;;;;;;4357688;32;19970;-52
2021/11/18 07:06:24;;;;;;;;;;;6.60;48.80;;;;;;4357760;32;19966;-50
2021/11/18 07:08:50;;;;;;;;;;;6.60;49.00;;;;;;4357676;32;20023;-49
2021/11/18 07:11:17;;;;;;;;;;;6.60;49.20;;;;;;4371897;32;19978;-50
2021/11/18 07:13:43;;;;;;;;;;;6.60;49.20;;;;;;4361327;32;19973;-50
2021/11/18 07:16:12;;;;;;;;;;;6.70;49.20;;;;;;4374388;32;20451;-51
2021/11/18 07:18:39;;;;;;;;;;;6.80;49.20;;;;;;4375165;32;19992;-50
2021/11/18 07:21:05;;;;;;;;;;;6.80;49.00;;;;;;4374980;32;19982;-49
2021/11/18 07:23:32;;;;;;;;;;;6.90;48.90;;;;;;4374515;32;19974;-51
2021/11/18 07:25:59;;;;;;;;;;;6.90;48.80;;;;;;4374711;32;19966;-47
2021/11/18 07:28:26;;;;;;;;;;;7.00;48.70;;;;;;4374731;32;19966;-54
2021/11/18 07:30:54;;;;;;;;;;;7.00;48.80;;;;;;4373581;32;20081;-53
2021/11/18 07:33:21;;;;;;;;;;;7.00;48.70;;;;;;4374508;32;20048;-54
2021/11/18 07:35:47;;;;;;;;;;;7.00;48.70;;;;;;4375027;32;19993;-54
2021/11/18 07:38:17;;;;;;;;;;;7.00;48.70;;;;;;4385648;32;19966;-51
2021/11/18 07:40:44;;;;;;;;;;;7.00;48.90;;;;;;4389617;32;20060;-51
2021/11/18 07:43:11;;;;;;;;;;;7.00;48.90;;;;;;4389689;32;20425;-51
2021/11/18 07:45:37;;;;;;;;;;;7.00;48.90;;;;;;4390005;32;19977;-51
2021/11/18 07:48:04;;;;;;;;;;;7.00;49.10;;;;;;4389357;32;20369;-45
2021/11/18 07:50:30;;;;;;;;;;;6.90;49.20;;;;;;4389749;32;20004;-52
2021/11/18 07:52:57;;;;;;;;;;;6.90;49.40;;;;;;4389039;32;19988;-51
2021/11/18 07:55:24;;;;;;;;;;;6.90;49.50;;;;;;4389175;32;20001;-53
2021/11/18 07:57:50;;;;;;;;;;;6.90;49.70;;;;;;4388949;32;19958;-50
2021/11/18 08:00:18;;;;;;;;;;;7.00;49.80;;;;;;4375508;32;19965;-51
2021/11/18 08:02:45;;;;;;;;;;;7.00;49.70;;;;;;4389603;32;20013;-50
2021/11/18 08:05:12;;;;;;;;;;;7.00;49.60;;;;;;4375465;32;20031;-49
2021/11/18 08:07:38;;;;;;;;;;;7.10;49.60;;;;;;4388843;32;20554;-53
2021/11/18 08:10:05;;;;;;;;;;;7.10;49.60;;;;;;4388942;32;20358;-42
2021/11/18 08:12:35;;;;;;;;;;;7.10;49.40;;;;;;4362938;32;19976;-50
2021/11/18 08:15:09;;;;;;;;;;;7.20;49.40;;;;;;4375878;32;20005;-52
2021/11/18 08:17:35;;;;;;;;;;;7.20;49.30;;;;;;4389117;32;19976;-38
2021/11/18 08:20:02;;;;;;;;;;;7.30;49.20;;;;;;4385639;32;20046;-53
2021/11/18 08:22:28;;;;;;;;;;;7.30;49.00;;;;;;4373830;32;19996;-52
2021/11/18 08:24:54;;;;;;;;;;;7.20;48.80;;;;;;4373804;32;19970;-52
2021/11/18 08:27:20;;;;;;;;;;;7.20;48.80;;;;;;4374028;32;19962;-51
2021/11/18 08:29:47;;;;;;;;;;;7.20;48.80;;;;;;4373774;32;19962;-52
2021/11/18 08:32:14;;;;;;;;;;;7.20;48.80;;;;;;4373984;32;19989;-50
2021/11/18 08:34:40;;;;;;;;;;;7.10;48.70;;;;;;4373821;32;20451;-53
2021/11/18 08:37:07;;;;;;;;;;;7.10;48.90;;;;;;4373124;32;19970;-40
2021/11/18 08:39:33;;;;;;;;;;;7.10;48.90;;;;;;4373659;32;19966;-49
2021/11/18 08:42:02;;;;;;;;;;;7.20;49.00;;;;;;4373542;32;19973;-52
2021/11/18 08:44:29;;;;;;;;;;;7.20;48.90;;;;;;4360248;32;19977;-52
2021/11/18 08:46:56;;;;;;;;;;;7.10;48.70;;;;;;4373386;32;19953;-53
2021/11/18 08:49:22;;;;;;;;;;;7.20;48.70;;;;;;4373451;32;20016;-50
2021/11/18 08:51:49;;;;;;;;;;;7.10;48.70;;;;;;4373059;32;20065;-50
2021/11/18 08:54:19;;;;;;;;;;;7.20;48.80;;;;;;4373971;32;19975;-50
2021/11/18 08:56:51;;;;;;;;;;;7.20;49.30;;;;;;4373591;32;19962;-51
2021/11/18 08:59:18;;;;;;;;;;;7.20;48.10;;;;;;4373462;32;19972;-52
2021/11/18 09:01:47;;;;;;;;;;;7.10;48.20;;;;;;4373518;32;19970;-50
2021/11/18 09:04:15;;;;;;;;;;;7.10;48.50;;;;;;4359485;32;19997;-52
2021/11/18 09:06:42;;;;;;;;;;;7.10;48.70;;;;;;4373457;32;19989;-50
2021/11/18 09:09:08;;;;;;;;;;;7.10;48.70;;;;;;4373231;32;20416;-41
2021/11/18 09:11:35;;;;;;;;;;;7.10;48.70;;;;;;4373550;32;20394;-50
2021/11/18 09:14:02;;;;;;;;;;;7.20;48.80;;;;;;4373225;32;19966;-54
2021/11/18 09:16:29;;;;;;;;;;;7.20;48.80;;;;;;4373004;32;20337;-52
2021/11/18 09:18:55;;;;;;;;;;;7.20;48.80;;;;;;4373035;32;20398;-52
2021/11/18 09:21:22;;;;;;;;;;;7.20;48.60;;;;;;4372959;32;19969;-54
2021/11/18 09:24:14;;;;;;;;;;;7.10;48.50;;;;;;4372905;32;19962;-49
2021/11/18 09:26:42;;;;;;;;;;;7.10;48.50;;;;;;4373318;32;20013;-50
2021/11/18 09:29:08;;;;;;;;;;;7.10;48.70;;;;;;4371874;32;19998;-52
2021/11/18 09:31:34;;;;;;;;;;;7.00;48.70;;;;;;4372757;32;19971;-48
2021/11/18 09:34:01;;;;;;;;;;;7.00;49.00;;;;;;4372919;32;19977;-50
2021/11/18 09:36:27;;;;;;;;;;;7.00;49.20;;;;;;4372795;32;19978;-50
2021/11/18 09:38:54;;;;;;;;;;;7.00;49.40;;;;;;4387975;32;20216;-51
2021/11/18 09:41:26;;;;;;;;;;;7.00;49.60;;;;;;4387950;32;20019;-51
2021/11/18 09:44:11;;;;;;;;;;;7.00;49.70;;;;;;4388174;32;19993;-51
2021/11/18 09:47:02;;;;;;;;;;;7.00;49.80;;;;;;4387825;32;20366;-52
2021/11/18 09:49:46;;;;;;;;;;;6.90;49.80;;;;;;4375971;32;20031;-49
2021/11/18 09:52:37;;;;;;;;;;;6.90;50.00;;;;;;4387296;32;20402;-50
2021/11/18 09:55:16;;;;;;;;;;;6.90;50.20;;;;;;4388198;32;19981;-51
2021/11/18 09:58:06;;;;;;;;;;;6.80;50.20;;;;;;4387164;32;19981;-52
2021/11/18 10:00:47;;;;;;;;;;;6.80;50.20;;;;;;4373965;32;19973;-50
2021/11/18 10:03:32;;;;;;;;;;;6.80;50.30;;;;;;4373941;32;19980;-50
2021/11/18 10:06:33;;;;;;;;;;;6.80;50.30;;;;;;4387403;32;19965;-51
2021/11/18 10:09:16;;;;;;;;;;;6.80;50.20;;;;;;4387745;32;19997;-52
2021/11/18 10:12:19;;;;;;;;;;;6.80;50.20;;;;;;4373689;32;19970;-44
2021/11/18 10:14:59;;;;;;;;;;;6.80;50.10;;;;;;4387290;32;20387;-51
2021/11/18 10:17:37;;;;;;;;;;;6.80;50.30;;;;;;4373434;32;19973;-51
2021/11/18 10:20:10;;;;;;;;;;;6.80;50.30;;;;;;4383654;32;19977;-52
2021/11/18 10:22:47;;;;;;;;;;;6.90;50.40;;;;;;4372600;32;20058;-52
2021/11/18 10:25:20;;;;;;;;;;;6.90;50.30;;;;;;4358525;32;20050;-43
2021/11/18 10:27:53;;;;;;;;;;;6.90;50.30;;;;;;4372878;32;20033;-52
2021/11/18 10:30:42;;;;;;;;;;;6.90;50.20;;;;;;4358334;32;19985;-52
2021/11/18 10:33:12;;;;;;;;;;;6.90;50.80;;;;;;4372518;32;19970;-50
2021/11/18 10:35:53;;;;;;;;;;;6.90;50.00;;;;;;4372562;32;20054;-53
2021/11/18 10:38:21;;;;;;;;;;;6.90;50.10;;;;;;4359498;32;20074;-51
2021/11/18 10:41:06;;;;;;;;;;;6.80;50.20;;;;;;4371901;32;19981;-52
2021/11/18 10:43:35;;;;;;;;;;;6.80;50.30;;;;;;4358080;32;20132;-51
2021/11/18 10:46:30;;;;;;;;;;;6.80;50.50;;;;;;4358718;32;20595;-51
2021/11/18 10:49:11;;;;;;;;;;;6.70;50.50;;;;;;4372255;32;19985;-53
2021/11/18 10:51:51;;;;;;;;;;;6.70;50.60;;;;;;4371864;32;20107;-51
2021/11/18 10:54:18;;;;;;;;;;;6.70;50.60;;;;;;4358764;32;19988;-53
2021/11/18 10:56:56;;;;;;;;;;;6.60;50.40;;;;;;4358221;32;19977;-45
2021/11/18 10:59:34;;;;;;;;;;;6.60;50.50;;;;;;4373648;32;19966;-55
2021/11/18 11:02:00;;;;;;;;;;;6.50;50.50;;;;;;4375338;32;19962;-50
2021/11/18 11:04:37;;;;;;;;;;;6.50;50.60;;;;;;4375383;32;19962;-52
2021/11/18 11:07:03;;;;;;;;;;;6.40;50.70;;;;;;4374863;32;20100;-52
2021/11/18 11:09:41;;;;;;;;;;;6.40;50.60;;;;;;4375295;32;19954;-46
2021/11/18 11:12:25;;;;;;;;;;;6.30;50.40;;;;;;4375233;32;19969;-52
2021/11/18 11:15:09;;;;;;;;;;;6.30;50.60;;;;;;4375041;32;20046;-50
2021/11/18 11:17:45;;;;;;;;;;;6.20;51.50;;;;;;4374809;32;20001;-54
2021/11/18 11:20:16;;;;;;;;;;;6.20;51.20;;;;;;4379057;32;20419;-53
2021/11/18 11:23:17;;;;;;;;;;;6.20;51.30;;;;;;4376194;32;20362;-54
2021/11/18 11:25:52;;;;;;;;;;;6.20;51.30;;;;;;4376119;32;20049;-53
2021/11/18 11:28:30;;;;;;;;;;;6.10;51.30;;;;;;4389818;32;19985;-53
2021/11/18 11:31:18;;;;;;;;;;;6.10;51.30;;;;;;4389648;32;19961;-54
2021/11/18 11:33:50;;;;;;;;;;;6.10;51.50;;;;;;4389513;32;19966;-52
2021/11/18 11:36:28;;;;;;;;;;;6.10;51.60;;;;;;4376269;32;20419;-52
2021/11/18 11:39:31;;;;;;;;;;;6.00;51.50;;;;;;4364035;32;19980;-52
2021/11/18 11:42:18;;;;;;;;;;;5.90;51.50;;;;;;4375355;32;20111;-53
2021/11/18 11:45:03;;;;;;;;;;;5.90;51.90;;;;;;4389469;32;19962;-53
2021/11/18 11:47:33;;;;;;;;;;;5.90;52.20;;;;;;4375551;32;20169;-54
2021/11/18 11:50:21;;;;;;;;;;;5.80;52.30;;;;;;4375612;32;19973;-54
2021/11/18 11:52:51;;;;;;;;;;;5.90;52.30;;;;;;4389144;32;20007;-42
2021/11/18 11:55:32;;;;;;;;;;;5.80;52.30;;;;;;4389230;32;19959;-40
2021/11/18 11:58:19;;;;;;;;;;;5.80;52.20;;;;;;4389004;32;19969;-53
2021/11/18 12:00:54;;;;;;;;;;;5.80;52.20;;;;;;4389798;32;20044;-54
2021/11/18 12:03:41;;;;;;;;;;;5.70;51.90;;;;;;4389388;32;19961;-52
2021/11/18 12:06:31;;;;;;;;;;;5.80;52.00;;;;;;4389000;32;20499;-57
2021/11/18 12:09:28;;;;;;;;;;;5.80;51.90;;;;;;4376654;32;19968;-53
2021/11/18 12:12:29;;;;;;;;;;;5.80;51.80;;;;;;4373506;32;20054;-53
2021/11/18 12:14:56;;;;;;;;;;;5.80;51.90;;;;;;4389172;32;19980;-53
2021/11/18 12:17:41;;;;;;;;;;;5.80;52.20;;;;;;4388768;32;20050;-55
2021/11/18 12:20:19;;;;;;;;;;;5.90;52.30;;;;;;4372901;32;20496;-54
2021/11/18 12:22:45;;;;;;;;;;;5.90;52.30;;;;;;4359651;32;20451;-51
2021/11/18 12:25:15;;;;;;;;;;;5.90;52.20;;;;;;4373730;32;20008;-55
2021/11/18 12:28:00;;;;;;;;;;;5.90;52.20;;;;;;4373942;32;19997;-55
2021/11/18 12:30:43;;;;;;;;;;;5.90;52.10;;;;;;4373570;32;19985;-55
2021/11/18 12:33:32;;;;;;;;;;;5.90;52.00;;;;;;4373583;32;20366;-53
2021/11/18 12:36:09;;;;;;;;;;;5.80;52.10;;;;;;4363914;32;19985;-54
2021/11/18 12:38:41;;;;;;;;;;;5.80;52.60;;;;;;4373700;32;19998;-53
2021/11/18 12:41:26;;;;;;;;;;;5.80;52.90;;;;;;4373678;32;19992;-54
2021/11/18 12:44:15;;;;;;;;;;;5.80;53.10;;;;;;4373624;32;20585;-54
2021/11/18 12:47:33;;;;;;;;;;;5.70;53.10;;;;;;4361932;32;20406;-53
2021/11/18 12:50:08;;;;;;;;;;;5.70;53.30;;;;;;4311659;33;20152;-55
2021/11/18 12:52:39;;;;;;;;;;;5.70;53.60;;;;;;4326276;33;20555;-51
2021/11/18 12:55:11;;;;;;;;;;;5.70;54.00;;;;;;4314435;33;20403;-57
2021/11/18 12:57:39;;;;;;;;;;;5.70;54.20;;;;;;4326407;33;19978;-54
2021/11/18 13:00:16;;;;;;;;;;;5.70;54.30;;;;;;4326950;33;20076;-56
2021/11/18 13:02:48;;;;;;;;;;;5.70;54.30;;;;;;4326603;33;20056;-53
2021/11/18 13:05:15;;;;;;;;;;;5.70;54.40;;;;;;4326414;33;20084;-53
2021/11/18 13:07:48;;;;;;;;;;;5.70;54.50;;;;;;4326527;33;20403;-52
2021/11/18 13:10:22;;;;;;;;;;;5.70;54.70;;;;;;4326035;33;19987;-43
2021/11/18 13:12:49;;;;;;;;;;;5.70;54.90;;;;;;4326459;33;20047;-49
2021/11/18 13:15:21;;;;;;;;;;;5.60;55.00;;;;;;4326338;33;20061;-55
2021/11/18 13:17:52;;;;;;;;;;;5.60;55.20;;;;;;4326392;33;19978;-46
2021/11/18 13:20:55;;;;;;;;;;;5.60;55.40;;;;;;4319183;33;20052;-51
2021/11/18 13:23:29;;;;;;;;;;;5.60;55.40;;;;;;4340696;33;19970;-47
2021/11/18 13:26:01;;;;;;;;;;;5.60;55.60;;;;;;4377780;32;19999;-52
2021/11/18 13:28:55;;;;;;;;;;;5.60;55.60;;;;;;4387522;32;20369;-48
2021/11/18 13:31:46;;;;;;;;;;;5.50;55.60;;;;;;4387734;32;19989;-50
2021/11/18 13:34:26;;;;;;;;;;;5.50;55.80;;;;;;4360131;32;20001;-50
2021/11/18 13:37:19;;;;;;;;;;;5.50;55.70;;;;;;4374977;32;20417;-49
2021/11/18 13:39:54;;;;;;;;;;;5.50;55.70;;;;;;4381295;32;19970;-48
2021/11/18 13:42:29;;;;;;;;;;;5.50;55.80;;;;;;4373743;32;20041;-48
2021/11/18 13:45:13;;;;;;;;;;;5.40;55.70;;;;;;4387826;32;20457;-45
2021/11/18 13:47:48;;;;;;;;;;;5.40;55.40;;;;;;4388057;32;19982;-47
2021/11/18 13:50:19;;;;;;;;;;;5.30;55.40;;;;;;4387635;32;20495;-50
2021/11/18 13:52:56;;;;;;;;;;;5.30;55.40;;;;;;4387838;32;19973;-51
2021/11/18 13:55:33;;;;;;;;;;;5.30;55.70;;;;;;4373979;32;19976;-49
2021/11/18 13:58:08;;;;;;;;;;;5.30;55.80;;;;;;4387437;32;20024;-44
2021/11/18 14:00:35;;;;;;;;;;;5.30;55.80;;;;;;4373353;32;19989;-42
2021/11/18 14:03:05;;;;;;;;;;;5.20;55.80;;;;;;4361299;32;19969;-39
2021/11/18 14:05:38;;;;;;;;;;;5.20;55.90;;;;;;4373550;32;20046;-40
2021/11/18 14:08:15;;;;;;;;;;;5.20;56.10;;;;;;4361407;32;19964;-41
2021/11/18 14:10:47;;;;;;;;;;;5.20;56.30;;;;;;4362017;32;20502;-41
2021/11/18 14:13:40;;;;;;;;;;;5.10;56.30;;;;;;4361127;32;19989;-40
2021/11/18 14:16:23;;;;;;;;;;;5.10;56.50;;;;;;4387244;32;20041;-41
2021/11/18 14:19:23;;;;;;;;;;;5.10;56.80;;;;;;4387366;32;19962;-39
2021/11/18 14:22:10;;;;;;;;;;;5.10;56.90;;;;;;4372510;32;20522;-42
2021/11/18 14:24:47;;;;;;;;;;;5.10;56.90;;;;;;4372267;32;20015;-43
2021/11/18 14:27:19;;;;;;;;;;;5.10;56.90;;;;;;4372906;32;20405;-42
2021/11/18 14:29:57;;;;;;;;;;;5.10;56.90;;;;;;4372355;32;19982;-42
2021/11/18 14:32:33;;;;;;;;;;;5.10;56.80;;;;;;4372878;32;20058;-43
2021/11/18 14:35:05;;;;;;;;;;;5.10;56.80;;;;;;4374665;32;20009;-43
2021/11/18 14:37:52;;;;;;;;;;;5.10;56.80;;;;;;4375006;32;20047;-42
2021/11/18 14:40:39;;;;;;;;;;;5.10;57.00;;;;;;4375136;32;19966;-43
2021/11/18 14:43:11;;;;;;;;;;;5.10;57.10;;;;;;4375052;32;19985;-41
2021/11/18 14:45:38;;;;;;;;;;;5.10;57.30;;;;;;4374723;32;19981;-42
2021/11/18 14:48:27;;;;;;;;;;;5.10;57.40;;;;;;4374831;32;20040;-43
2021/11/18 14:51:30;;;;;;;;;;;5.00;57.40;;;;;;4375568;32;19966;-43
2021/11/18 14:53:56;;;;;;;;;;;5.00;57.30;;;;;;4327940;33;20045;-43
2021/11/18 14:56:23;;;;;;;;;;;5.00;57.50;;;;;;4328241;33;19977;-43
2021/11/18 14:58:54;;;;;;;;;;;5.00;57.50;;;;;;4328100;33;20771;-44